createdAt,value
2019-04-14T00:00:07.583Z,15.20
2019-04-14T00:01:07.161Z,18.10
2019-04-14T00:02:07.549Z,18.80
2019-04-14T00:03:08.651Z,18.80
2019-04-14T00:04:09.493Z,15.70
2019-04-14T00:05:08.711Z,15.10
2019-04-14T00:06:09.171Z,17.00
2019-04-14T00:07:10.165Z,16.30
2019-04-14T00:08:10.964Z,17.70
2019-04-14T00:09:10.258Z,17.40
2019-04-14T00:10:11.456Z,17.30
2019-04-14T00:11:11.011Z,14.70
2019-04-14T00:12:12.030Z,18.10
2019-04-14T00:13:11.783Z,15.60
2019-04-14T00:14:12.158Z,15.50
2019-04-14T00:15:23.502Z,15.00
2019-04-14T00:16:14.173Z,16.80
2019-04-14T00:17:13.354Z,15.80
2019-04-14T00:18:14.252Z,18.50
2019-04-14T00:19:15.115Z,16.60
2019-04-14T00:20:14.440Z,17.90
2019-04-14T00:21:15.156Z,19.10
2019-04-14T00:22:16.228Z,17.90
2019-04-14T00:23:15.608Z,15.10
2019-04-14T00:24:16.276Z,18.70
2019-04-14T00:25:17.380Z,15.70
2019-04-14T00:26:16.772Z,16.60
2019-04-14T00:27:17.241Z,15.70
2019-04-14T00:28:18.476Z,17.00
2019-04-14T00:29:17.935Z,17.40
2019-04-14T00:30:18.718Z,17.90
2019-04-14T00:31:19.475Z,19.30
2019-04-14T00:32:19.083Z,19.60
2019-04-14T00:33:19.548Z,18.60
2019-04-14T00:34:20.300Z,18.40
2019-04-14T00:35:21.013Z,17.30
2019-04-14T00:36:21.822Z,19.10
2019-04-14T00:37:20.994Z,20.10
2019-04-14T00:38:21.730Z,18.50
2019-04-14T00:39:22.654Z,17.00
2019-04-14T00:40:22.141Z,18.00
2019-04-14T00:41:33.801Z,16.40
2019-04-14T00:42:23.888Z,16.10
2019-04-14T00:43:24.255Z,16.10
2019-04-14T00:44:23.678Z,17.80
2019-04-14T00:45:33.958Z,18.80
2019-04-14T00:46:25.496Z,17.10
2019-04-14T00:47:24.841Z,18.40
2019-04-14T00:48:25.833Z,18.50
2019-04-14T00:49:26.759Z,21.30
2019-04-14T00:50:25.961Z,17.60
2019-04-14T00:51:26.554Z,18.80
2019-04-14T00:52:27.586Z,18.00
2019-04-14T00:53:27.434Z,19.00
2019-04-14T00:54:28.244Z,19.40
2019-04-14T00:55:27.903Z,18.20
2019-04-14T00:56:28.268Z,17.30
2019-04-14T00:57:28.998Z,16.90
2019-04-14T00:58:29.989Z,16.50
2019-04-14T00:59:29.452Z,17.50
2019-04-14T01:00:29.830Z,19.70
2019-04-14T01:01:30.789Z,17.50
2019-04-14T01:02:31.753Z,19.60
2019-04-14T01:03:31.051Z,19.40
2019-04-14T01:04:31.639Z,17.90
2019-04-14T01:05:33.381Z,21.10
2019-04-14T01:06:32.223Z,17.70
2019-04-14T01:07:32.725Z,19.40
2019-04-14T01:08:33.505Z,19.20
2019-04-14T01:09:33.280Z,19.10
2019-04-14T01:10:34.393Z,20.10
2019-04-14T01:11:34.051Z,17.50
2019-04-14T01:12:34.434Z,19.30
2019-04-14T01:13:35.369Z,17.70
2019-04-14T01:14:36.339Z,19.60
2019-04-14T01:15:46.625Z,17.90
2019-04-14T01:16:36.955Z,18.10
2019-04-14T01:17:37.302Z,20.00
2019-04-14T01:18:36.712Z,18.80
2019-04-14T01:19:37.362Z,22.40
2019-04-14T01:20:38.524Z,18.60
2019-04-14T01:21:39.117Z,17.50
2019-04-14T01:22:38.291Z,21.50
2019-04-14T01:23:39.204Z,20.20
2019-04-14T01:24:40.285Z,18.90
2019-04-14T01:25:39.401Z,20.60
2019-04-14T01:26:39.998Z,17.40
2019-04-14T01:27:40.649Z,18.20
2019-04-14T01:28:41.791Z,20.70
2019-04-14T01:29:40.976Z,21.20
2019-04-14T01:30:41.543Z,19.10
2019-04-14T01:31:42.505Z,19.20
2019-04-14T01:32:42.113Z,20.30
2019-04-14T01:33:42.528Z,22.30
2019-04-14T01:34:43.355Z,20.70
2019-04-14T01:35:44.321Z,20.40
2019-04-14T01:36:43.659Z,21.20
2019-04-14T01:37:44.156Z,19.50
2019-04-14T01:38:45.001Z,18.90
2019-04-14T01:39:45.941Z,20.90
2019-04-14T01:40:45.208Z,24.30
2019-04-14T01:41:45.692Z,20.20
2019-04-14T01:42:46.319Z,20.90
2019-04-14T01:43:47.444Z,25.40
2019-04-14T01:44:46.754Z,19.40
2019-04-14T01:45:59.004Z,21.20
2019-04-14T01:46:48.505Z,19.80
2019-04-14T01:47:48.912Z,18.60
2019-04-14T01:48:48.264Z,20.40
2019-04-14T01:49:48.720Z,19.30
2019-04-14T01:50:49.573Z,19.80
2019-04-14T01:51:50.379Z,22.60
2019-04-14T01:52:50.116Z,23.50
2019-04-14T01:53:51.032Z,18.40
2019-04-14T01:54:51.538Z,19.70
2019-04-14T01:55:51.013Z,18.10
2019-04-14T01:56:51.390Z,18.60
2019-04-14T01:57:52.478Z,19.10
2019-04-14T01:58:53.299Z,20.20
2019-04-14T01:59:52.591Z,21.00
2019-04-14T02:00:53.083Z,19.90
2019-04-14T02:01:54.264Z,21.30
2019-04-14T02:02:53.608Z,20.30
2019-04-14T02:03:54.160Z,20.30
2019-04-14T02:04:55.341Z,19.80
2019-04-14T02:05:55.995Z,20.60
2019-04-14T02:06:55.259Z,19.10
2019-04-14T02:07:55.847Z,20.40
2019-04-14T02:08:56.867Z,19.60
2019-04-14T02:09:57.453Z,19.60
2019-04-14T02:10:56.716Z,21.10
2019-04-14T02:11:57.450Z,18.40
2019-04-14T02:12:58.466Z,20.00
2019-04-14T02:13:57.871Z,20.40
2019-04-14T02:14:58.327Z,18.80
2019-04-14T02:16:05.618Z,18.50
2019-04-14T02:17:00.839Z,17.30
2019-04-14T02:17:59.379Z,19.30
2019-04-14T02:19:00.277Z,21.80
2019-04-14T02:20:01.198Z,18.50
2019-04-14T02:21:02.035Z,18.60
2019-04-14T02:22:00.901Z,20.30
2019-04-14T02:23:01.815Z,20.10
2019-04-14T02:24:02.488Z,22.40
2019-04-14T02:25:03.476Z,19.10
2019-04-14T02:26:02.463Z,19.10
2019-04-14T02:27:03.506Z,18.00
2019-04-14T02:28:03.230Z,20.30
2019-04-14T02:29:03.699Z,18.40
2019-04-14T02:30:06.487Z,18.80
2019-04-14T02:31:17.532Z,20.50
2019-04-14T02:33:39.024Z,20.40
2019-04-14T02:36:36.246Z,19.40
2019-04-14T02:37:34.804Z,19.90
2019-04-14T02:40:39.252Z,20.30
2019-04-14T02:41:41.460Z,18.60
2019-04-14T02:42:52.431Z,17.90
2019-04-14T02:43:41.694Z,19.50
2019-04-14T02:44:36.445Z,18.20
2019-04-14T02:45:47.189Z,16.80
2019-04-14T02:46:43.920Z,18.40
2019-04-14T02:48:07.209Z,18.70
2019-04-14T02:48:44.302Z,17.40
2019-04-14T02:49:44.283Z,17.20
2019-04-14T02:50:30.494Z,17.80
2019-04-14T02:51:33.697Z,20.20
2019-04-14T02:52:35.766Z,20.80
2019-04-14T02:53:44.296Z,17.30
2019-04-14T02:55:42.842Z,16.80
2019-04-14T02:56:35.747Z,17.80
2019-04-14T02:57:52.535Z,17.80
2019-04-14T02:58:47.939Z,17.30
2019-04-14T02:59:45.291Z,19.50
2019-04-14T03:00:45.638Z,18.90
2019-04-14T03:02:01.084Z,17.70
2019-04-14T03:03:08.797Z,16.70
2019-04-14T03:03:41.011Z,18.60
2019-04-14T03:04:44.085Z,18.00
2019-04-14T03:05:44.850Z,17.20
2019-04-14T03:06:46.796Z,18.20
2019-04-14T03:07:45.874Z,19.30
2019-04-14T03:09:42.443Z,18.30
2019-04-14T03:11:48.972Z,19.80
2019-04-14T03:12:46.509Z,18.50
2019-04-14T03:13:45.598Z,20.60
2019-04-14T03:14:49.569Z,19.80
2019-04-14T03:15:53.625Z,18.90
2019-04-14T03:16:54.350Z,18.50
2019-04-14T03:17:47.290Z,19.00
2019-04-14T03:18:44.838Z,17.10
2019-04-14T03:19:59.396Z,19.00
2019-04-14T03:20:47.510Z,19.60
2019-04-14T03:21:48.816Z,18.50
2019-04-14T03:24:06.689Z,20.00
2019-04-14T03:24:39.296Z,19.40
2019-04-14T03:25:45.498Z,17.60
2019-04-14T03:26:51.824Z,21.30
2019-04-14T03:28:44.240Z,19.90
2019-04-14T03:29:59.901Z,18.20
2019-04-14T03:33:21.646Z,19.40
2019-04-14T03:34:18.016Z,19.10
2019-04-14T03:35:09.767Z,20.70
2019-04-14T03:36:25.416Z,20.50
2019-04-14T03:38:15.852Z,20.50
2019-04-14T03:38:58.852Z,20.00
2019-04-14T03:39:51.661Z,18.90
2019-04-14T03:40:58.900Z,18.60
2019-04-14T03:41:54.815Z,20.50
2019-04-14T03:43:03.767Z,19.30
2019-04-14T03:43:54.967Z,20.40
2019-04-14T03:44:56.514Z,18.00
2019-04-14T03:46:02.693Z,18.50
2019-04-14T03:47:02.949Z,18.50
2019-04-14T03:48:31.720Z,20.10
2019-04-14T03:49:08.025Z,19.90
2019-04-14T03:50:00.317Z,20.40
2019-04-14T03:51:02.128Z,19.30
2019-04-14T03:51:57.684Z,19.10
2019-04-14T03:53:12.017Z,19.20
2019-04-14T03:54:52.482Z,19.50
2019-04-14T03:55:43.233Z,19.90
2019-04-14T03:56:38.041Z,20.10
2019-04-14T03:57:37.443Z,19.90
2019-04-14T03:58:37.899Z,18.60
2019-04-14T03:59:39.203Z,19.50
2019-04-14T04:00:39.980Z,19.20
2019-04-14T04:01:39.153Z,20.20
2019-04-14T04:02:40.209Z,19.50
2019-04-14T04:03:39.740Z,18.60
2019-04-14T04:04:40.207Z,18.00
2019-04-14T04:05:41.330Z,18.40
2019-04-14T04:06:42.047Z,20.10
2019-04-14T04:07:41.305Z,19.30
2019-04-14T04:08:42.042Z,20.90
2019-04-14T04:09:43.224Z,20.00
2019-04-14T04:10:42.459Z,19.00
2019-04-14T04:11:43.417Z,21.00
2019-04-14T04:12:44.276Z,19.60
2019-04-14T04:13:43.584Z,18.00
2019-04-14T04:14:44.181Z,18.60
2019-04-14T04:15:45.392Z,17.90
2019-04-14T04:16:46.094Z,17.20
2019-04-14T04:17:45.217Z,20.10
2019-04-14T04:18:50.882Z,20.00
2019-04-14T04:19:46.989Z,18.40
2019-04-14T04:20:46.296Z,17.70
2019-04-14T04:21:46.698Z,17.60
2019-04-14T04:22:47.620Z,17.80
2019-04-14T04:23:47.431Z,17.40
2019-04-14T04:24:47.885Z,17.60
2019-04-14T04:25:48.673Z,19.40
2019-04-14T04:26:49.545Z,17.50
2019-04-14T04:27:48.972Z,18.40
2019-04-14T04:28:49.636Z,22.40
2019-04-14T04:29:50.566Z,20.20
2019-04-14T04:30:50.135Z,18.90
2019-04-14T04:31:50.524Z,20.10
2019-04-14T04:32:51.521Z,20.00
2019-04-14T04:33:52.294Z,21.10
2019-04-14T04:34:51.647Z,21.00
2019-04-14T04:35:52.217Z,20.70
2019-04-14T04:36:53.044Z,20.00
2019-04-14T04:37:52.781Z,21.20
2019-04-14T04:38:53.192Z,20.10
2019-04-14T04:39:54.023Z,21.90
2019-04-14T04:40:54.991Z,20.80
2019-04-14T04:41:54.495Z,19.90
2019-04-14T04:42:54.863Z,19.90
2019-04-14T04:43:56.034Z,21.20
2019-04-14T04:44:55.512Z,19.80
2019-04-14T04:45:56.002Z,21.30
2019-04-14T04:46:56.924Z,22.30
2019-04-14T04:47:57.494Z,21.50
2019-04-14T04:49:03.208Z,22.40
2019-04-14T04:49:58.595Z,22.10
2019-04-14T04:50:58.522Z,22.00
2019-04-14T04:51:58.215Z,22.80
2019-04-14T04:52:58.575Z,19.40
2019-04-14T04:53:59.455Z,21.70
2019-04-14T04:55:00.156Z,21.40
2019-04-14T04:55:59.797Z,20.70
2019-04-14T04:57:00.194Z,21.40
2019-04-14T04:58:01.339Z,23.10
2019-04-14T04:59:01.140Z,21.20
2019-04-14T05:00:01.286Z,21.20
2019-04-14T05:01:01.933Z,21.50
2019-04-14T05:02:02.644Z,20.30
2019-04-14T05:03:03.577Z,23.00
2019-04-14T05:04:02.841Z,22.40
2019-04-14T05:05:03.497Z,21.40
2019-04-14T05:06:04.586Z,21.60
2019-04-14T05:07:03.952Z,21.40
2019-04-14T05:08:04.433Z,21.30
2019-04-14T05:09:05.623Z,21.40
2019-04-14T05:10:05.109Z,20.80
2019-04-14T05:11:05.511Z,19.70
2019-04-14T05:12:06.658Z,19.80
2019-04-14T05:13:07.289Z,19.40
2019-04-14T05:14:06.715Z,19.30
2019-04-14T05:15:07.339Z,21.10
2019-04-14T05:16:08.464Z,21.20
2019-04-14T05:17:07.914Z,20.90
2019-04-14T05:18:09.126Z,19.30
2019-04-14T05:19:17.258Z,20.90
2019-04-14T05:20:09.960Z,20.60
2019-04-14T05:21:10.335Z,21.70
2019-04-14T05:22:09.720Z,20.80
2019-04-14T05:23:10.300Z,18.50
2019-04-14T05:24:11.397Z,20.10
2019-04-14T05:25:10.902Z,20.30
2019-04-14T05:26:11.356Z,19.30
2019-04-14T05:27:12.413Z,18.90
2019-04-14T05:28:13.315Z,19.60
2019-04-14T05:29:12.495Z,20.70
2019-04-14T05:30:13.282Z,20.40
2019-04-14T05:31:14.315Z,21.50
2019-04-14T05:32:13.561Z,19.40
2019-04-14T05:33:14.134Z,22.00
2019-04-14T05:34:15.070Z,22.50
2019-04-14T05:35:14.755Z,21.70
2019-04-14T05:36:15.176Z,22.00
2019-04-14T05:37:16.075Z,22.40
2019-04-14T05:38:16.946Z,22.40
2019-04-14T05:39:16.314Z,21.30
2019-04-14T05:40:16.766Z,20.10
2019-04-14T05:41:17.931Z,21.50
2019-04-14T05:42:20.138Z,20.70
2019-04-14T05:43:28.320Z,20.40
2019-04-14T05:44:19.208Z,21.50
2019-04-14T05:45:19.751Z,20.20
2019-04-14T05:46:18.978Z,20.60
2019-04-14T05:47:19.727Z,20.70
2019-04-14T05:48:20.383Z,20.10
2019-04-14T05:49:28.610Z,18.10
2019-04-14T05:50:22.621Z,20.30
2019-04-14T05:51:21.723Z,21.60
2019-04-14T05:52:21.346Z,21.50
2019-04-14T05:53:21.845Z,21.50
2019-04-14T05:54:23.058Z,20.60
2019-04-14T05:55:22.524Z,18.80
2019-04-14T05:56:23.151Z,22.20
2019-04-14T05:57:24.202Z,19.30
2019-04-14T05:58:23.645Z,21.00
2019-04-14T05:59:24.226Z,21.40
2019-04-14T06:00:25.371Z,20.20
2019-04-14T06:01:24.879Z,20.20
2019-04-14T06:02:27.468Z,19.80
2019-04-14T06:03:25.648Z,20.30
2019-04-14T06:04:26.414Z,19.10
2019-04-14T06:05:27.404Z,19.80
2019-04-14T06:06:26.723Z,19.10
2019-04-14T06:07:27.123Z,18.70
2019-04-14T06:08:27.490Z,19.40
2019-04-14T06:09:27.891Z,19.00
2019-04-14T06:10:28.255Z,19.40
2019-04-14T06:11:28.657Z,18.90
2019-04-14T06:12:29.056Z,21.70
2019-04-14T06:13:29.390Z,21.50
2019-04-14T06:14:29.796Z,20.10
2019-04-14T06:15:30.162Z,18.30
2019-04-14T06:16:30.565Z,18.60
2019-04-14T06:17:30.931Z,19.20
2019-04-14T06:18:31.290Z,18.40
2019-04-14T06:19:37.138Z,17.30
2019-04-14T06:20:33.134Z,18.20
2019-04-14T06:21:32.458Z,16.20
2019-04-14T06:22:32.855Z,17.30
2019-04-14T06:23:33.209Z,15.80
2019-04-14T06:24:33.629Z,17.00
2019-04-14T06:25:36.255Z,16.20
2019-04-14T06:26:34.431Z,17.90
2019-04-14T06:27:34.778Z,17.30
2019-04-14T06:28:35.191Z,16.80
2019-04-14T06:29:35.617Z,15.00
2019-04-14T06:30:35.911Z,15.90
2019-04-14T06:31:36.315Z,15.00
2019-04-14T06:32:36.703Z,14.10
2019-04-14T06:33:37.063Z,15.70
2019-04-14T06:34:37.448Z,17.10
2019-04-14T06:35:37.832Z,17.30
2019-04-14T06:36:38.253Z,17.80
2019-04-14T06:37:38.798Z,19.40
2019-04-14T06:38:39.255Z,18.90
2019-04-14T06:39:39.408Z,19.70
2019-04-14T06:40:39.794Z,16.00
2019-04-14T06:41:40.216Z,16.40
2019-04-14T06:42:40.602Z,17.50
2019-04-14T06:43:48.335Z,17.20
2019-04-14T06:44:42.378Z,16.20
2019-04-14T06:45:41.827Z,17.90
2019-04-14T06:46:42.127Z,16.20
2019-04-14T06:47:42.512Z,16.30
2019-04-14T06:48:42.877Z,15.80
2019-04-14T06:49:48.894Z,16.10
2019-04-14T06:50:46.316Z,16.30
2019-04-14T06:51:44.037Z,16.80
2019-04-14T06:52:44.515Z,17.20
2019-04-14T06:53:44.839Z,16.20
2019-04-14T06:54:45.161Z,16.30
2019-04-14T06:55:45.575Z,17.50
2019-04-14T06:56:45.954Z,16.80
2019-04-14T06:57:46.342Z,16.80
2019-04-14T06:58:46.713Z,15.90
2019-04-14T06:59:47.109Z,16.80
2019-04-14T07:00:47.518Z,15.90
2019-04-14T07:01:48.014Z,19.10
2019-04-14T07:02:48.316Z,17.60
2019-04-14T07:03:48.640Z,17.30
2019-04-14T07:04:49.033Z,16.50
2019-04-14T07:05:49.434Z,17.60
2019-04-14T07:06:51.308Z,17.40
2019-04-14T07:07:56.894Z,17.70
2019-04-14T07:08:51.543Z,19.10
2019-04-14T07:09:50.965Z,17.90
2019-04-14T07:10:51.509Z,17.50
2019-04-14T07:11:51.784Z,19.40
2019-04-14T07:12:52.138Z,19.40
2019-04-14T07:13:52.474Z,19.90
2019-04-14T07:14:52.886Z,18.60
2019-04-14T07:15:53.282Z,18.40
2019-04-14T07:16:53.682Z,19.30
2019-04-14T07:17:54.066Z,19.80
2019-04-14T07:18:54.541Z,19.10
2019-04-14T07:20:01.939Z,19.30
2019-04-14T07:20:56.200Z,18.20
2019-04-14T07:21:55.615Z,19.90
2019-04-14T07:22:55.965Z,20.70
2019-04-14T07:23:56.328Z,18.70
2019-04-14T07:24:56.699Z,19.00
2019-04-14T07:25:57.117Z,21.10
2019-04-14T07:26:57.757Z,19.10
2019-04-14T07:27:57.772Z,21.60
2019-04-14T07:28:58.158Z,20.20
2019-04-14T07:29:58.524Z,20.20
2019-04-14T07:30:58.927Z,20.70
2019-04-14T07:31:59.292Z,18.30
2019-04-14T07:32:59.668Z,20.90
2019-04-14T07:34:00.024Z,19.60
2019-04-14T07:35:00.480Z,22.70
2019-04-14T07:36:00.859Z,21.70
2019-04-14T07:37:01.259Z,20.80
2019-04-14T07:38:01.640Z,21.10
2019-04-14T07:39:02.004Z,20.60
2019-04-14T07:40:02.386Z,21.40
2019-04-14T07:41:02.773Z,20.60
2019-04-14T07:42:03.168Z,20.80
2019-04-14T07:43:03.598Z,21.00
2019-04-14T07:44:04.027Z,21.80
2019-04-14T07:45:04.310Z,18.90
2019-04-14T07:46:04.702Z,19.50
2019-04-14T07:47:05.103Z,20.90
2019-04-14T07:48:05.485Z,20.90
2019-04-14T07:49:05.849Z,21.30
2019-04-14T07:50:14.059Z,20.20
2019-04-14T07:51:07.634Z,18.80
2019-04-14T07:52:07.113Z,19.20
2019-04-14T07:53:07.382Z,18.80
2019-04-14T07:54:07.754Z,20.30
2019-04-14T07:55:08.142Z,21.10
2019-04-14T07:56:08.549Z,21.20
2019-04-14T07:57:08.916Z,21.40
2019-04-14T07:58:09.295Z,23.10
2019-04-14T07:59:09.697Z,21.60
2019-04-14T08:00:10.135Z,21.40
2019-04-14T08:01:10.467Z,21.00
2019-04-14T08:02:10.835Z,24.70
2019-04-14T08:03:11.214Z,20.30
2019-04-14T08:04:11.629Z,22.50
2019-04-14T08:05:12.012Z,20.80
2019-04-14T08:06:12.414Z,21.90
2019-04-14T08:07:12.798Z,22.30
2019-04-14T08:08:13.207Z,20.20
2019-04-14T08:09:13.540Z,22.30
2019-04-14T08:10:13.916Z,22.80
2019-04-14T08:11:14.308Z,23.70
2019-04-14T08:12:14.695Z,21.10
2019-04-14T08:13:15.066Z,20.40
2019-04-14T08:14:15.454Z,22.20
2019-04-14T08:15:15.819Z,21.40
2019-04-14T08:16:16.276Z,21.30
2019-04-14T08:17:16.704Z,21.60
2019-04-14T08:18:16.983Z,21.30
2019-04-14T08:19:17.617Z,22.90
2019-04-14T08:20:26.843Z,20.70
2019-04-14T08:21:19.147Z,20.60
2019-04-14T08:22:18.530Z,22.20
2019-04-14T08:23:18.938Z,25.00
2019-04-14T08:24:19.308Z,22.00
2019-04-14T08:25:19.727Z,23.00
2019-04-14T08:26:20.061Z,23.30
2019-04-14T08:27:20.441Z,22.00
2019-04-14T08:28:21.247Z,22.90
2019-04-14T08:29:21.204Z,21.60
2019-04-14T08:30:21.565Z,21.30
2019-04-14T08:31:21.960Z,25.40
2019-04-14T08:32:22.395Z,23.50
2019-04-14T08:33:22.824Z,24.20
2019-04-14T08:34:23.115Z,20.50
2019-04-14T08:35:23.481Z,24.90
2019-04-14T08:36:23.870Z,22.80
2019-04-14T08:37:24.265Z,21.90
2019-04-14T08:38:24.631Z,20.40
2019-04-14T08:39:25.048Z,22.20
2019-04-14T08:40:25.395Z,23.40
2019-04-14T08:41:25.859Z,21.00
2019-04-14T08:42:26.182Z,21.60
2019-04-14T08:43:26.549Z,21.90
2019-04-14T08:44:26.934Z,23.30
2019-04-14T08:45:27.533Z,25.10
2019-04-14T08:46:28.424Z,23.10
2019-04-14T08:47:28.078Z,21.70
2019-04-14T08:48:28.427Z,22.40
2019-04-14T08:49:28.922Z,23.40
2019-04-14T08:50:38.727Z,21.20
2019-04-14T08:51:30.633Z,21.60
2019-04-14T08:52:30.015Z,21.40
2019-04-14T08:53:30.405Z,21.90
2019-04-14T08:54:30.784Z,19.90
2019-04-14T08:55:31.158Z,22.70
2019-04-14T08:56:31.546Z,21.80
2019-04-14T08:57:31.965Z,21.30
2019-04-14T08:58:32.375Z,24.50
2019-04-14T08:59:32.693Z,22.70
2019-04-14T09:00:33.076Z,24.60
2019-04-14T09:01:33.464Z,25.30
2019-04-14T09:02:33.857Z,22.00
2019-04-14T09:03:34.223Z,21.00
2019-04-14T09:04:34.627Z,20.40
2019-04-14T09:05:34.970Z,20.30
2019-04-14T09:06:35.493Z,20.20
2019-04-14T09:07:35.788Z,18.70
2019-04-14T09:08:36.162Z,21.00
2019-04-14T09:09:36.559Z,19.70
2019-04-14T09:10:36.934Z,20.50
2019-04-14T09:11:37.333Z,20.50
2019-04-14T09:12:37.745Z,18.70
2019-04-14T09:13:38.103Z,21.80
2019-04-14T09:14:38.616Z,19.80
2019-04-14T09:15:38.824Z,18.50
2019-04-14T09:16:39.228Z,18.90
2019-04-14T09:17:39.674Z,19.40
2019-04-14T09:18:39.992Z,19.70
2019-04-14T09:19:40.391Z,19.70
2019-04-14T09:20:51.391Z,19.00
2019-04-14T09:21:42.123Z,19.50
2019-04-14T09:22:41.591Z,18.90
2019-04-14T09:23:41.901Z,18.80
2019-04-14T09:24:42.302Z,18.70
2019-04-14T09:25:42.669Z,20.80
2019-04-14T09:26:43.055Z,20.40
2019-04-14T09:27:43.463Z,20.00
2019-04-14T09:28:43.842Z,18.50
2019-04-14T09:29:44.225Z,19.80
2019-04-14T09:30:44.619Z,20.10
2019-04-14T09:31:45.047Z,19.60
2019-04-14T09:32:45.408Z,19.80
2019-04-14T09:33:45.743Z,19.30
2019-04-14T09:34:46.138Z,20.20
2019-04-14T09:35:46.502Z,21.40
2019-04-14T09:36:46.883Z,18.50
2019-04-14T09:37:47.320Z,20.90
2019-04-14T09:38:47.641Z,17.90
2019-04-14T09:39:48.133Z,17.70
2019-04-14T09:40:48.432Z,19.60
2019-04-14T09:41:48.814Z,18.90
2019-04-14T09:42:49.266Z,20.10
2019-04-14T09:43:49.562Z,20.80
2019-04-14T09:44:49.972Z,18.40
2019-04-14T09:45:50.343Z,19.80
2019-04-14T09:46:50.726Z,18.70
2019-04-14T09:47:51.270Z,19.80
2019-04-14T09:48:51.460Z,18.50
2019-04-14T09:49:51.880Z,18.90
2019-04-14T09:51:03.783Z,20.80
2019-04-14T09:51:53.644Z,19.50
2019-04-14T09:52:53.058Z,17.50
2019-04-14T09:53:53.405Z,19.00
2019-04-14T09:54:53.805Z,21.30
2019-04-14T09:55:54.208Z,20.60
2019-04-14T09:56:54.536Z,23.00
2019-04-14T09:57:55.181Z,19.80
2019-04-14T09:58:55.305Z,18.50
2019-04-14T09:59:55.706Z,18.70
2019-04-14T10:00:56.069Z,19.80
2019-04-14T10:01:56.435Z,19.90
2019-04-14T10:02:56.866Z,19.60
2019-04-14T10:03:57.257Z,19.80
2019-04-14T10:04:57.610Z,19.80
2019-04-14T10:05:57.990Z,18.40
2019-04-14T10:06:58.353Z,19.00
2019-04-14T10:07:58.785Z,19.20
2019-04-14T10:08:59.127Z,18.90
2019-04-14T10:09:59.516Z,21.30
2019-04-14T10:10:59.919Z,21.80
2019-04-14T10:12:00.317Z,16.70
2019-04-14T10:13:00.801Z,20.50
2019-04-14T10:14:01.063Z,21.80
2019-04-14T10:15:01.444Z,19.30
2019-04-14T10:16:01.844Z,19.50
2019-04-14T10:17:02.233Z,21.00
2019-04-14T10:18:02.629Z,18.40
2019-04-14T10:19:03.043Z,20.90
2019-04-14T10:20:03.389Z,21.50
2019-04-14T10:21:16.257Z,21.70
2019-04-14T10:22:05.148Z,21.20
2019-04-14T10:23:04.559Z,20.40
2019-04-14T10:24:04.916Z,21.90
2019-04-14T10:25:05.338Z,22.60
2019-04-14T10:26:05.700Z,19.40
2019-04-14T10:27:06.064Z,21.70
2019-04-14T10:28:06.487Z,18.50
2019-04-14T10:29:06.879Z,22.90
2019-04-14T10:30:07.196Z,21.90
2019-04-14T10:31:07.601Z,20.90
2019-04-14T10:32:07.965Z,22.20
2019-04-14T10:33:08.383Z,21.00
2019-04-14T10:34:09.923Z,19.90
2019-04-14T10:35:09.099Z,19.60
2019-04-14T10:36:09.513Z,18.20
2019-04-14T10:37:10.018Z,20.40
2019-04-14T10:38:10.281Z,21.20
2019-04-14T10:39:10.628Z,19.10
2019-04-14T10:40:11.012Z,20.40
2019-04-14T10:41:11.401Z,20.10
2019-04-14T10:42:11.776Z,21.00
2019-04-14T10:43:12.201Z,22.00
2019-04-14T10:44:12.547Z,21.40
2019-04-14T10:45:12.958Z,22.50
2019-04-14T10:46:13.403Z,22.70
2019-04-14T10:47:13.681Z,27.80
2019-04-14T10:48:14.111Z,23.20
2019-04-14T10:49:14.458Z,19.60
2019-04-14T10:50:14.833Z,19.60
2019-04-14T10:51:15.241Z,22.10
2019-04-14T10:52:15.591Z,22.40
2019-04-14T10:53:16.032Z,18.70
2019-04-14T10:54:16.481Z,19.80
2019-04-14T10:55:16.752Z,23.20
2019-04-14T10:56:17.130Z,21.30
2019-04-14T10:57:17.494Z,21.20
2019-04-14T10:58:17.927Z,19.30
2019-04-14T10:59:18.292Z,19.40
2019-04-14T11:00:18.671Z,18.90
2019-04-14T11:01:19.074Z,18.50
2019-04-14T11:02:19.505Z,19.20
2019-04-14T11:03:19.842Z,21.30
2019-04-14T11:04:20.186Z,20.40
2019-04-14T11:05:20.571Z,18.00
2019-04-14T11:06:20.970Z,19.90
2019-04-14T11:07:21.332Z,20.20
2019-04-14T11:08:21.755Z,18.60
2019-04-14T11:09:22.101Z,18.70
2019-04-14T11:10:22.520Z,18.50
2019-04-14T11:11:22.877Z,21.30
2019-04-14T11:12:23.251Z,18.90
2019-04-14T11:13:23.671Z,20.70
2019-04-14T11:14:23.999Z,19.10
2019-04-14T11:15:24.394Z,18.90
2019-04-14T11:16:24.793Z,23.80
2019-04-14T11:17:25.170Z,18.40
2019-04-14T11:18:25.624Z,19.50
2019-04-14T11:19:25.974Z,19.50
2019-04-14T11:20:26.329Z,18.90
2019-04-14T11:21:26.791Z,18.50
2019-04-14T11:22:27.102Z,17.60
2019-04-14T11:23:27.507Z,18.00
2019-04-14T11:24:27.884Z,17.50
2019-04-14T11:25:28.225Z,17.20
2019-04-14T11:26:28.664Z,17.30
2019-04-14T11:27:29.149Z,17.70
2019-04-14T11:28:29.428Z,18.20
2019-04-14T11:29:29.808Z,18.90
2019-04-14T11:30:30.157Z,16.80
2019-04-14T11:31:30.572Z,17.80
2019-04-14T11:32:30.938Z,16.20
2019-04-14T11:33:31.332Z,18.10
2019-04-14T11:34:31.715Z,17.50
2019-04-14T11:35:32.204Z,19.10
2019-04-14T11:36:32.492Z,17.10
2019-04-14T11:37:33.076Z,16.60
2019-04-14T11:38:33.272Z,16.40
2019-04-14T11:39:33.646Z,17.70
2019-04-14T11:40:34.532Z,14.40
2019-04-14T11:41:34.383Z,16.10
2019-04-14T11:42:34.772Z,18.40
2019-04-14T11:43:35.225Z,15.00
2019-04-14T11:44:35.536Z,17.50
2019-04-14T11:45:35.931Z,16.40
2019-04-14T11:46:36.305Z,14.30
2019-04-14T11:47:36.656Z,15.10
2019-04-14T11:48:37.075Z,18.80
2019-04-14T11:49:37.455Z,16.20
2019-04-14T11:50:37.821Z,17.20
2019-04-14T11:51:38.274Z,18.30
2019-04-14T11:52:38.544Z,16.00
2019-04-14T11:53:38.985Z,16.50
2019-04-14T11:54:39.373Z,16.10
2019-04-14T11:55:39.743Z,16.70
2019-04-14T11:56:40.142Z,16.70
2019-04-14T11:57:40.509Z,14.70
2019-04-14T11:58:40.893Z,17.10
2019-04-14T11:59:41.298Z,18.80
2019-04-14T12:00:41.731Z,16.90
2019-04-14T12:01:42.050Z,17.90
2019-04-14T12:02:42.428Z,16.00
2019-04-14T12:03:42.804Z,19.30
2019-04-14T12:04:43.198Z,19.20
2019-04-14T12:05:43.588Z,19.50
2019-04-14T12:06:43.982Z,15.60
2019-04-14T12:07:44.358Z,19.80
2019-04-14T12:08:45.487Z,15.40
2019-04-14T12:09:45.134Z,15.30
2019-04-14T12:10:45.495Z,15.20
2019-04-14T12:11:45.901Z,18.10
2019-04-14T12:12:49.091Z,16.10
2019-04-14T12:13:46.674Z,13.80
2019-04-14T12:14:47.030Z,16.20
2019-04-14T12:15:47.422Z,16.60
2019-04-14T12:16:47.906Z,14.70
2019-04-14T12:17:48.213Z,15.30
2019-04-14T12:18:48.592Z,15.80
2019-04-14T12:19:48.957Z,16.00
2019-04-14T12:20:49.323Z,18.80
2019-04-14T12:21:49.723Z,17.10
2019-04-14T12:22:50.121Z,15.20
2019-04-14T12:23:50.565Z,15.80
2019-04-14T12:24:50.940Z,15.30
2019-04-14T12:25:51.238Z,14.50
2019-04-14T12:26:51.642Z,14.30
2019-04-14T12:27:52.065Z,15.90
2019-04-14T12:28:53.628Z,15.20
2019-04-14T12:29:52.820Z,15.70
2019-04-14T12:30:53.304Z,14.60
2019-04-14T12:31:53.559Z,15.50
2019-04-14T12:32:53.980Z,15.20
2019-04-14T12:33:54.423Z,14.60
2019-04-14T12:34:54.747Z,15.40
2019-04-14T12:35:55.095Z,14.20
2019-04-14T12:36:55.480Z,17.30
2019-04-14T12:37:55.867Z,15.00
2019-04-14T12:38:56.305Z,15.10
2019-04-14T12:39:56.640Z,14.30
2019-04-14T12:40:58.807Z,15.10
2019-04-14T12:41:57.490Z,14.50
2019-04-14T12:42:57.803Z,15.40
2019-04-14T12:43:58.222Z,15.00
2019-04-14T12:44:58.567Z,16.80
2019-04-14T12:45:58.939Z,17.20
2019-04-14T12:46:59.310Z,13.00
2019-04-14T12:47:59.696Z,16.10
2019-04-14T12:49:00.081Z,14.00
2019-04-14T12:50:00.581Z,14.40
2019-04-14T12:51:00.844Z,15.20
2019-04-14T12:52:01.221Z,16.40
2019-04-14T12:53:01.612Z,15.10
2019-04-14T12:54:02.026Z,14.90
2019-04-14T12:55:02.411Z,13.90
2019-04-14T12:56:02.779Z,16.10
2019-04-14T12:57:03.160Z,15.40
2019-04-14T12:58:03.602Z,16.00
2019-04-14T12:59:03.908Z,14.20
2019-04-14T13:00:04.316Z,14.00
2019-04-14T13:01:04.688Z,14.20
2019-04-14T13:02:05.076Z,14.40
2019-04-14T13:03:05.468Z,13.40
2019-04-14T13:04:05.864Z,14.60
2019-04-14T13:05:06.219Z,13.60
2019-04-14T13:06:06.641Z,14.90
2019-04-14T13:07:06.964Z,12.90
2019-04-14T13:08:07.371Z,14.20
2019-04-14T13:09:07.767Z,17.50
2019-04-14T13:10:08.145Z,17.20
2019-04-14T13:11:08.489Z,15.80